Latest Weather Observations for Walgett

IDN60801

Issued at 11:32 pm EST Thursday 28 May 2015 (issued every 30 minutes, with the page automatically refreshed every 10 minutes)

About weather observations | Map of weather stations | Latest weather observations for NSW | Other Formats
Station Details ID: 052088 Name: WALGETT AIRPORT AWS Lat: -30.04 Lon: 148.12 Height: 133.0 m
Data from the previous 72 hours. | See also: Recent months at Walgett
Date/Time
EST
Temp
°C
App
Temp
°C
Dew
Point
Rel
Hum
%
Delta-T
°C
Wind Press
QNH
hPa
Press
MSL
hPa
Rain
since 9 am
mm
Dir
 
Spd
km/h
Gust
km/h
Spd
kts
Gust
kts
28/11:30pm 17.3 15.1 9.2 59 4.2 NE 11 13 6 7 1022.2 1022.1 0.2
28/11:00pm 16.9 14.2 9.1 60 4.0 NE 13 15 7 8 1022.2 1022.1 0.2
28/10:30pm 17.2 15.3 9.1 59 4.2 NE 9 11 5 6 1022.4 1022.3 0.2
28/10:00pm 17.9 16.0 9.0 56 4.6 NE 9 9 5 5 1022.5 1022.4 0.2
28/09:30pm 17.8 15.9 9.2 57 4.5 NNE 9 9 5 5 1022.5 1022.4 0.2
28/09:00pm 18.0 15.8 9.4 57 4.5 NE 11 13 6 7 1022.2 1022.1 0.2
28/08:30pm 17.4 15.2 9.3 59 4.3 NE 11 13 6 7 1022.3 1022.2 0.2
28/08:00pm 18.1 16.5 8.9 55 4.8 ENE 7 9 4 5 1022.3 1022.2 0.2
28/07:30pm 18.9 17.5 8.8 52 5.3 NE 6 7 3 4 1022.3 1022.2 0.2
28/07:00pm 19.3 17.8 9.2 52 5.3 NE 7 9 4 5 1022.3 1022.2 0.2
28/06:30pm 19.4 18.0 8.7 50 5.6 ENE 6 7 3 4 1022.0 1021.9 0.2
28/06:00pm 20.1 18.6 8.4 47 6.1 ENE 6 7 3 4 1021.8 1021.7 0.2
28/05:30pm 21.1 19.4 8.4 44 6.7 ENE 7 9 4 5 1021.5 1021.4 0.2
28/05:00pm 21.8 19.6 8.0 41 7.2 NE 9 11 5 6 1021.4 1021.3 0.2
28/04:30pm 22.7 20.2 8.0 39 7.8 NE 11 17 6 9 1021.4 1021.3 0.2
28/04:00pm 23.2 20.2 7.7 37 8.1 NNE 13 19 7 10 1021.3 1021.2 0.2
28/03:30pm 23.6 20.7 8.1 37 8.3 NNE 13 22 7 12 1021.3 1021.2 0.2
28/03:00pm 24.0 21.5 8.0 36 8.5 NNW 11 17 6 9 1021.1 1021.0 0.2
28/02:30pm 23.8 21.3 8.2 37 8.3 NE 11 17 6 9 1021.3 1021.2 0.2
28/02:00pm 23.3 20.8 8.2 38 8.0 NNE 11 17 6 9 1021.3 1021.2 0.2
28/01:30pm 23.2 20.4 8.5 39 7.9 NNW 13 20 7 11 1021.8 1021.7 0.2
28/01:00pm 23.0 19.8 8.3 39 7.8 N 15 20 8 11 1022.3 1022.2 0.2
28/12:30pm 22.1 18.9 8.6 42 7.2 N 15 22 8 12 1022.8 1022.7 0.2
28/12:00pm 23.0 19.2 9.0 41 7.5 NNE 19 24 10 13 1023.3 1023.2 0.2
28/11:30am 21.7 18.2 8.6 43 7.0 NNE 17 22 9 12 1023.5 1023.4 0.2
28/11:00am 20.7 18.3 10.2 51 5.7 NNE 13 19 7 10 1024.1 1024.0 0.0
28/10:30am 19.3 16.9 10.0 55 5.0 NNE 13 17 7 9 1024.5 1024.5 0.0
28/10:00am 17.8 15.6 10.7 63 3.8 NNE 13 17 7 9 1024.7 1024.7 0.0
28/09:30am 16.7 14.1 10.8 68 3.2 NE 15 19 8 10 1024.7 1024.7 0.0
28/09:00am 16.2 13.9 10.5 69 3.0 NE 13 17 7 9 1024.6 1024.6 0.0
28/08:30am 15.8 13.7 11.0 73 2.6 NE 13 17 7 9 1024.4 1024.4 0.0
28/08:00am 14.8 13.3 10.6 76 2.2 NE 9 11 5 6 1024.2 1024.1 0.0
28/07:30am 14.0 12.6 10.8 81 1.7 NE 9 11 5 6 1023.7 1023.6 0.0
28/07:00am 14.0 12.5 10.4 79 1.9 NE 9 11 5 6 1023.4 1023.3 0.0
28/06:30am 13.9 12.8 10.5 80 1.8 ENE 7 9 4 5 1023.0 1022.9 0.0
28/06:00am 14.0 12.9 10.8 81 1.7 E 7 9 4 5 1022.9 1022.8 0.0
28/05:30am 14.1 13.1 10.9 81 1.7 ENE 7 7 4 4 1022.7 1022.6 0.0
28/05:00am 14.0 13.2 11.0 82 1.6 ENE 6 6 3 3 1022.6 1022.5 0.0
28/04:30am 14.1 13.2 11.3 83 1.5 ENE 7 9 4 5 1022.5 1022.4 0.0
28/04:00am 13.9 13.2 11.4 85 1.3 SSE 6 7 3 4 1022.5 1022.4 0.0
28/03:30am 14.6 13.3 11.2 80 1.8 E 9 11 5 6 1022.6 1022.5 0.0
28/03:00am 14.7 14.5 11.7 82 1.6 NE 4 7 2 4 1022.6 1022.5 0.0
28/02:30am 14.7 13.9 11.8 83 1.6 NE 7 9 4 5 1022.7 1022.6 0.0
28/02:00am 14.7 13.5 11.7 82 1.6 NE 9 13 5 7 1022.7 1022.6 0.0
28/01:30am 15.1 14.2 11.3 78 2.0 ENE 7 9 4 5 1023.2 1023.1 0.0
28/01:00am 15.5 14.7 11.1 75 2.4 E 6 9 3 5 1023.1 1023.0 0.0
28/12:30am 15.7 16.1 11.3 75 2.4 CALM 0 0 0 0 1022.9 1022.8 0.0
28/12:00am 16.5 16.7 10.6 68 3.1 CALM 0 4 0 2 1023.3 1023.2 0.0
 
Date/Time
EST
Temp
°C
App
Temp
°C
Dew
Point
Rel
Hum
%
Delta-T
°C
Wind Press
QNH
hPa
Press
MSL
hPa
Rain
since 9 am
mm
Dir
 
Spd
km/h
Gust
km/h
Spd
kts
Gust
kts
27/11:30pm 16.3 14.8 10.4 68 3.1 NNE 9 9 5 5 1023.1 1023.0 0.0
27/11:00pm 16.5 14.9 10.1 66 3.4 NE 9 11 5 6 1023.1 1023.0 0.0
27/10:30pm 16.2 14.6 10.1 67 3.2 NE 9 11 5 6 1023.2 1023.1 0.0
27/10:00pm 16.5 14.8 9.9 65 3.5 NE 9 11 5 6 1023.2 1023.1 0.0
27/09:30pm 17.3 15.3 10.2 63 3.8 ENE 11 15 6 8 1023.0 1022.9 0.0
27/09:00pm 16.6 15.3 9.8 64 3.6 ENE 7 7 4 4 1023.2 1023.1 0.0
27/08:30pm 16.9 15.8 9.8 63 3.8 NE 6 7 3 4 1023.1 1023.0 0.0
27/08:00pm 17.0 15.6 9.4 61 4.0 ENE 7 9 4 5 1023.0 1022.9 0.0
27/07:30pm 17.4 16.0 9.6 60 4.1 ENE 7 9 4 5 1022.8 1022.7 0.0
27/07:00pm 16.7 15.2 9.1 61 3.9 ENE 7 9 4 5 1022.7 1022.6 0.0
27/06:30pm 17.3 15.8 9.2 59 4.2 ENE 7 9 4 5 1022.5 1022.4 0.0
27/06:00pm 18.3 16.7 8.8 54 4.9 ENE 7 9 4 5 1022.3 1022.2 0.0
27/05:30pm 19.0 17.5 8.6 51 5.4 NE 6 7 3 4 1022.2 1022.1 0.0
27/05:00pm 20.5 18.5 8.8 47 6.2 NNE 9 11 5 6 1021.9 1021.8 0.0
27/04:30pm 22.4 21.1 9.2 43 7.1 NNE 6 9 3 5 1022.2 1022.1 0.0
27/04:00pm 21.9 21.0 9.4 45 6.7 ENE 4 9 2 5 1022.3 1022.2 0.0
27/03:30pm 22.0 21.1 9.2 44 6.9 SSW 4 7 2 4 1022.4 1022.3 0.0
27/03:00pm 22.4 21.3 9.9 45 6.8 E 6 11 3 6 1022.3 1022.2 0.0
27/02:30pm 22.7 20.9 9.5 43 7.2 W 9 11 5 6 1022.5 1022.4 0.0
27/02:00pm 22.2 20.8 9.4 44 6.9 N 7 17 4 9 1022.6 1022.5 0.0
27/01:30pm 22.3 20.1 9.5 44 6.9 N 11 19 6 10 1022.8 1022.7 0.0
27/01:00pm 21.9 20.3 10.1 47 6.4 N 9 15 5 8 1023.0 1022.9 0.0
27/12:30pm 21.5 19.5 10.3 49 6.1 N 11 15 6 8 1023.7 1023.6 0.0
27/12:00pm 20.7 18.6 9.9 50 5.8 N 11 15 6 8 1024.3 1024.2 0.0
27/11:30am 19.7 17.3 9.9 53 5.3 NNE 13 17 7 9 1024.8 1024.8 0.0
27/11:00am 19.4 17.0 10.1 55 5.0 NNE 13 20 7 11 1025.3 1025.2 0.0
27/10:30am 18.5 15.7 10.1 58 4.5 NNE 15 20 8 11 1025.7 1025.6 0.0
27/10:00am 16.8 13.6 10.0 64 3.6 NNE 17 22 9 12 1025.9 1025.8 0.0
27/09:30am 15.4 13.1 10.6 73 2.6 NE 13 17 7 9 1026.0 1025.9 0.0
27/09:00am 12.8 10.3 9.8 82 1.5 NE 13 17 7 9 1025.8 1025.7 0.0
27/08:30am 11.4 9.6 9.5 88 1.0 ENE 9 11 5 6 1025.8 1025.7 0.0
27/08:00am 10.5 8.2 9.1 91 0.7 NE 11 13 6 7 1025.8 1025.7 0.0
27/07:30am 9.4 7.4 8.8 96 0.3 NE 9 11 5 6 1025.4 1025.3 0.0
27/07:00am 8.4 6.6 7.8 96 0.3 ENE 7 9 4 5 1025.1 1025.0 0.0
27/06:30am 8.2 6.3 7.6 96 0.3 E 7 9 4 5 1024.7 1024.7 0.0
27/06:00am 7.2 5.1 6.5 95 0.3 E 7 9 4 5 1024.5 1024.5 0.0
27/05:30am 7.1 4.9 6.4 95 0.3 ENE 7 9 4 5 1024.1 1024.0 0.0
27/05:00am 6.7 4.4 5.7 93 0.4 E 7 9 4 5 1024.1 1024.0 0.0
27/04:30am 6.6 5.2 5.4 92 0.5 ESE 2 7 1 4 1024.1 1024.0 0.0
27/04:00am 7.0 6.0 5.6 91 0.6 CALM 0 0 0 0 1024.3 1024.2 0.0
27/03:30am 7.9 7.1 6.7 92 0.6 CALM 0 0 0 0 1024.3 1024.2 0.0
27/03:00am 7.8 6.9 6.1 89 0.8 CALM 0 0 0 0 1024.5 1024.5 0.0
27/02:30am 8.9 8.3 7.2 89 0.8 CALM 0 0 0 0 1024.7 1024.7 0.0
27/02:00am 10.0 8.5 8.3 89 0.8 ENE 6 7 3 4 1024.7 1024.7 0.0
27/01:30am 10.3 8.5 8.1 86 1.1 ENE 7 9 4 5 1024.7 1024.7 0.0
27/01:00am 10.7 8.8 9.0 89 0.8 E 9 13 5 7 1024.9 1024.9 0.0
27/12:30am 10.2 8.6 8.6 90 0.8 E 7 9 4 5 1024.7 1024.7 0.0
27/12:00am 9.7 7.6 8.1 90 0.8 E 9 11 5 6 1025.4 1025.3 0.0
 
Date/Time
EST
Temp
°C
App
Temp
°C
Dew
Point
Rel
Hum
%
Delta-T
°C
Wind Press
QNH
hPa
Press
MSL
hPa
Rain
since 9 am
mm
Dir
 
Spd
km/h
Gust
km/h
Spd
kts
Gust
kts
26/11:30pm 9.3 7.3 6.4 82 1.4 SE 6 9 3 5 1025.8 1025.7 0.0
26/11:00pm 10.8 9.1 7.7 81 1.5 SE 6 7 3 4 1025.9 1025.8 0.0
26/10:30pm 13.0 11.3 9.8 81 1.6 E 9 9 5 5 1025.8 1025.7 0.0
26/10:00pm 13.3 11.9 9.7 79 1.8 ESE 7 9 4 5 1025.9 1025.8 0.0
26/09:30pm 14.0 11.9 9.8 76 2.2 E 11 15 6 8 1026.0 1025.9 0.0
26/09:00pm 14.1 12.4 9.9 76 2.2 E 9 11 5 6 1026.0 1025.9 0.0
26/08:30pm 13.4 11.7 8.5 72 2.5 ESE 7 9 4 5 1026.2 1026.1 0.0
26/08:00pm 15.2 13.9 10.0 71 2.7 ESE 7 9 4 5 1026.1 1026.0 0.0
26/07:30pm 16.0 14.4 10.3 69 3.0 ENE 9 13 5 7 1025.9 1025.8 0.0
26/07:00pm 16.3 14.4 10.4 68 3.1 E 11 13 6 7 1025.7 1025.6 0.0
26/06:30pm 17.0 15.1 10.6 66 3.4 E 11 13 6 7 1025.3 1025.2 0.0
26/06:00pm 17.7 16.2 10.6 63 3.8 E 9 13 5 7 1025.3 1025.2 0.0
26/05:30pm 18.8 17.4 10.9 60 4.3 E 9 15 5 8 1025.2 1025.1 0.0
26/05:00pm 19.5 17.7 10.8 57 4.7 E 11 17 6 9 1025.1 1025.0 0.0
26/04:30pm 20.0 18.2 10.7 55 5.1 E 11 15 6 8 1025.2 1025.1 0.0
26/04:00pm 20.4 18.4 10.2 52 5.5 E 11 15 6 8 1025.2 1025.1 0.0
26/03:30pm 20.6 18.7 10.4 52 5.6 ESE 11 15 6 8 1025.5 1025.4 0.0
26/03:00pm 20.8 19.5 10.0 50 5.8 ENE 7 15 4 8 1025.6 1025.5 0.0
26/02:30pm 21.2 19.4 10.7 51 5.8 ENE 11 15 6 8 1025.6 1025.5 0.0
26/02:00pm 20.4 18.9 10.5 53 5.4 NE 9 15 5 8 1026.0 1025.9 0.0
26/01:30pm 20.4 18.2 10.8 54 5.3 E 13 19 7 10 1025.9 1025.8 0.0
26/01:00pm 19.4 17.9 10.7 57 4.7 E 9 13 5 7 1026.7 1026.6 0.0
26/12:30pm 19.0 17.1 10.6 58 4.6 E 11 15 6 8 1027.1 1027.0 0.0
26/12:00pm 18.7 16.5 10.8 60 4.3 NE 13 17 7 9 1027.5 1027.4 0.0
26/11:30am 18.3 16.5 10.7 61 4.1 ENE 11 15 6 8 1028.1 1028.0 0.0
26/11:00am 16.9 15.6 10.1 64 3.6 ENE 7 9 4 5 1028.7 1028.6 0.0
26/10:30am 15.9 14.6 9.8 67 3.2 ENE 7 11 4 6 1029.0 1028.9 0.0
26/10:00am 14.6 13.1 9.2 70 2.8 ENE 7 9 4 5 1029.2 1029.1 0.0
26/09:30am 13.5 11.5 8.8 73 2.4 NE 9 11 5 6 1029.3 1029.2 0.0
26/09:00am 12.3 9.8 8.4 77 1.9 E 11 15 6 8 1029.2 1029.1 0.0
26/08:30am 11.8 9.8 8.6 81 1.6 ENE 9 11 5 6 1029.0 1028.9 0.0
26/08:00am 10.8 9.1 8.2 84 1.3 E 7 9 4 5 1029.1 1029.0 0.0
26/07:30am 9.8 8.1 7.7 87 1.0 E 6 7 3 4 1028.9 1028.8 0.0
26/07:00am 9.4 7.4 7.0 85 1.1 E 7 9 4 5 1028.5 1028.4 0.0
26/06:30am 10.2 7.9 7.6 84 1.3 ENE 9 11 5 6 1028.7 1028.6 0.0
26/06:00am 10.3 7.6 7.5 83 1.3 NE 11 13 6 7 1028.1 1028.0 0.0
26/05:30am 11.5 8.9 7.8 78 1.8 ENE 11 15 6 8 1027.6 1027.5 0.0
26/05:00am 11.1 9.3 7.2 77 1.9 ENE 6 9 3 5 1027.6 1027.5 0.0
26/04:30am 12.2 9.7 8.1 76 2.0 ENE 11 15 6 8 1027.7 1027.6 0.0
26/04:00am 12.0 9.8 7.9 76 2.0 ENE 9 13 5 7 1028.0 1027.9 0.0
26/03:30am 11.7 9.7 8.6 81 1.5 E 9 13 5 7 1027.9 1027.8 0.0
26/03:00am 9.2 7.1 6.5 83 1.3 E 7 9 4 5 1028.4 1028.3 0.0
26/02:30am 10.2 7.9 7.3 82 1.4 E 9 11 5 6 1028.6 1028.5 0.0
26/02:00am 10.1 9.3 6.6 79 1.6 CALM 0 0 0 0 1028.7 1028.6 0.0
26/01:30am 11.6 10.1 6.7 72 2.3 E 4 6 2 3 1028.8 1028.7 0.0
26/01:00am 13.4 11.2 7.8 69 2.8 E 9 13 5 7 1028.8 1028.7 0.0
26/12:30am 11.9 9.7 8.0 77 1.9 E 9 11 5 6 1028.9 1028.8 0.0
26/12:00am 11.6 11.1 7.7 77 1.9 CALM 0 2 0 1 1029.3 1029.2 0.0

Other Formats:

Comma delimited format used in spreadsheet applications
http://www.bom.gov.au/fwo/IDN60801/IDN60801.95715.axf

JavaScript Object Notation format (JSON) in row-major order
http://www.bom.gov.au/fwo/IDN60801/IDN60801.95715.json